createdAt,value
2023-02-24T00:02:00.688Z,5.50
2023-02-24T00:04:30.088Z,5.50
2023-02-24T00:06:57.811Z,5.50
2023-02-24T00:09:27.950Z,5.50
2023-02-24T00:11:59.873Z,5.50
2023-02-24T00:14:30.042Z,5.60
2023-02-24T00:17:01.903Z,5.60
2023-02-24T00:19:34.528Z,5.60
2023-02-24T00:22:02.842Z,5.60
2023-02-24T00:24:31.406Z,5.50
2023-02-24T00:27:02.814Z,5.40
2023-02-24T00:29:30.629Z,5.40
2023-02-24T00:32:07.172Z,5.40
2023-02-24T00:34:36.774Z,5.50
2023-02-24T00:37:07.706Z,5.40
2023-02-24T00:39:36.384Z,5.40
2023-02-24T00:42:06.112Z,5.40
2023-02-24T00:44:36.366Z,5.50
2023-02-24T00:47:05.229Z,5.50
2023-02-24T00:49:33.282Z,5.50
2023-02-24T00:52:01.363Z,5.50
2023-02-24T00:54:28.816Z,5.40
2023-02-24T00:56:57.267Z,5.50
2023-02-24T00:59:24.747Z,5.50
2023-02-24T01:01:52.666Z,5.50
2023-02-24T01:04:21.450Z,5.50
2023-02-24T01:06:51.677Z,5.50
2023-02-24T01:09:21.326Z,5.50
2023-02-24T01:12:18.359Z,5.60
2023-02-24T01:14:47.981Z,5.60
2023-02-24T01:17:18.490Z,5.60
2023-02-24T01:19:49.392Z,5.70
2023-02-24T01:22:18.484Z,5.60
2023-02-24T01:24:46.570Z,5.70
2023-02-24T01:27:17.724Z,5.60
2023-02-24T01:29:46.210Z,5.70
2023-02-24T01:32:20.894Z,5.80
2023-02-24T01:34:51.219Z,5.70
2023-02-24T01:37:20.084Z,5.70
2023-02-24T01:39:48.469Z,5.70
2023-02-24T01:42:21.722Z,5.70
2023-02-24T01:44:49.303Z,5.70
2023-02-24T01:47:21.252Z,5.70
2023-02-24T01:49:53.470Z,5.70
2023-02-24T01:52:30.669Z,5.70
2023-02-24T01:55:04.301Z,5.70
2023-02-24T01:57:36.423Z,5.70
2023-02-24T02:00:19.983Z,5.80
2023-02-24T02:02:51.012Z,5.80
2023-02-24T02:05:18.849Z,5.80
2023-02-24T02:07:46.790Z,5.80
2023-02-24T02:10:14.491Z,5.80
2023-02-24T02:12:44.841Z,5.90
2023-02-24T02:15:20.747Z,5.90
2023-02-24T02:17:56.950Z,5.90
2023-02-24T02:20:57.727Z,5.90
2023-02-24T02:24:06.986Z,5.90
2023-02-24T02:27:21.347Z,5.80
2023-02-24T02:30:23.798Z,5.70
2023-02-24T02:33:02.191Z,5.70
2023-02-24T02:35:37.318Z,5.70
2023-02-24T02:38:28.127Z,5.60
2023-02-24T02:41:18.290Z,5.60
2023-02-24T02:44:00.902Z,5.60
2023-02-24T02:46:56.784Z,5.60
2023-02-24T02:49:36.585Z,5.60
2023-02-24T02:52:13.966Z,5.60
2023-02-24T02:55:01.642Z,5.50
2023-02-24T02:57:31.168Z,5.40
2023-02-24T03:00:13.621Z,5.40
2023-02-24T03:02:48.445Z,5.40
2023-02-24T03:05:20.627Z,5.40
2023-02-24T03:07:54.964Z,5.50
2023-02-24T03:10:29.281Z,5.50
2023-02-24T03:13:00.239Z,5.50
2023-02-24T03:15:30.520Z,5.50
2023-02-24T03:18:10.759Z,5.40
2023-02-24T03:20:53.481Z,5.50
2023-02-24T03:23:27.444Z,5.50
2023-02-24T03:25:59.068Z,5.50
2023-02-24T03:28:37.672Z,5.50
2023-02-24T03:31:29.748Z,5.50
2023-02-24T03:34:12.732Z,5.50
2023-02-24T03:36:39.965Z,5.50
2023-02-24T03:39:11.599Z,5.60
2023-02-24T03:41:50.165Z,5.60
2023-02-24T03:44:17.279Z,5.60
2023-02-24T03:46:44.738Z,5.70
2023-02-24T03:49:16.719Z,5.70
2023-02-24T03:52:22.358Z,5.80
2023-02-24T03:55:18.370Z,5.90
2023-02-24T03:58:17.652Z,5.90
2023-02-24T04:01:06.534Z,5.90
2023-02-24T04:03:39.810Z,5.80
2023-02-24T04:06:15.123Z,5.80
2023-02-24T04:09:05.187Z,5.80
2023-02-24T04:11:50.740Z,5.90
2023-02-24T04:14:31.313Z,5.90
2023-02-24T04:17:19.582Z,5.90
2023-02-24T04:19:51.149Z,5.90
2023-02-24T04:22:24.800Z,5.90
2023-02-24T04:24:58.480Z,5.90
2023-02-24T04:27:28.760Z,5.90
2023-02-24T04:30:00.964Z,5.90
2023-02-24T04:32:30.737Z,5.90
2023-02-24T04:35:09.789Z,6.00
2023-02-24T04:37:40.166Z,6.00
2023-02-24T04:40:11.176Z,5.90
2023-02-24T04:42:46.747Z,5.90
2023-02-24T04:45:19.604Z,5.80
2023-02-24T04:47:51.164Z,5.90
2023-02-24T04:50:26.127Z,5.90
2023-02-24T04:53:02.232Z,5.80
2023-02-24T04:55:33.442Z,5.80
2023-02-24T04:58:02.337Z,5.90
2023-02-24T05:00:36.246Z,5.90
2023-02-24T05:03:06.404Z,5.90
2023-02-24T05:05:34.257Z,5.90
2023-02-24T05:08:04.835Z,5.80
2023-02-24T05:10:40.802Z,5.80
2023-02-24T05:13:09.449Z,5.80
2023-02-24T05:15:41.438Z,5.80
2023-02-24T05:18:31.286Z,5.80
2023-02-24T05:21:16.928Z,5.80
2023-02-24T05:23:46.660Z,5.80
2023-02-24T05:26:17.309Z,5.80
2023-02-24T05:28:52.498Z,5.80
2023-02-24T05:31:24.321Z,5.80
2023-02-24T05:33:57.931Z,5.80
2023-02-24T05:36:27.733Z,5.80
2023-02-24T05:39:00.037Z,5.90
2023-02-24T05:41:35.975Z,5.90
2023-02-24T05:44:08.793Z,5.90
2023-02-24T05:46:42.050Z,5.90
2023-02-24T05:49:31.797Z,5.90
2023-02-24T05:52:01.717Z,6.00
2023-02-24T05:54:41.435Z,5.90
2023-02-24T05:57:15.138Z,5.90
2023-02-24T05:59:42.626Z,5.90
2023-02-24T06:02:15.599Z,5.90
2023-02-24T06:04:55.907Z,6.00
2023-02-24T06:07:25.290Z,6.00
2023-02-24T06:09:56.684Z,6.00
2023-02-24T06:12:28.249Z,5.90
2023-02-24T06:14:55.750Z,5.90
2023-02-24T06:17:23.274Z,5.90
2023-02-24T06:19:53.069Z,5.90
2023-02-24T06:22:23.512Z,5.90
2023-02-24T06:24:51.045Z,6.00
2023-02-24T06:27:22.152Z,6.00
2023-02-24T06:29:51.176Z,6.00
2023-02-24T06:32:20.476Z,6.00
2023-02-24T06:34:47.767Z,6.10
2023-02-24T06:37:16.036Z,6.10
2023-02-24T06:39:43.706Z,6.10
2023-02-24T06:42:12.379Z,6.20
2023-02-24T06:44:41.006Z,6.20
2023-02-24T06:47:11.271Z,6.20
2023-02-24T06:49:38.492Z,6.20
2023-02-24T06:52:06.241Z,6.20
2023-02-24T06:54:36.224Z,6.20
2023-02-24T06:57:04.706Z,6.30
2023-02-24T06:59:33.190Z,6.30
2023-02-24T07:02:03.585Z,6.20
2023-02-24T07:04:31.215Z,6.30
2023-02-24T07:07:03.713Z,6.30
2023-02-24T07:09:32.283Z,6.30
2023-02-24T07:12:02.894Z,6.30
2023-02-24T07:14:33.982Z,6.30
2023-02-24T07:17:01.582Z,6.30
2023-02-24T07:19:32.592Z,6.40
2023-02-24T07:22:03.823Z,6.40
2023-02-24T07:24:39.476Z,6.50
2023-02-24T07:27:13.181Z,6.50
2023-02-24T07:29:40.722Z,6.60
2023-02-24T07:32:09.638Z,6.60
2023-02-24T07:34:40.712Z,6.70
2023-02-24T07:37:09.366Z,6.60
2023-02-24T07:39:37.802Z,6.70
2023-02-24T07:42:06.617Z,6.70
2023-02-24T07:44:33.748Z,6.70
2023-02-24T07:47:01.522Z,6.70
2023-02-24T07:49:30.486Z,6.60
2023-02-24T07:51:58.223Z,6.60
2023-02-24T07:54:30.506Z,6.60
2023-02-24T07:56:59.864Z,6.60
2023-02-24T07:59:30.094Z,6.70
2023-02-24T08:01:58.137Z,6.70
2023-02-24T08:04:28.817Z,6.70
2023-02-24T08:06:56.811Z,6.70
2023-02-24T08:09:44.956Z,6.70
2023-02-24T08:12:18.245Z,6.70
2023-02-24T08:14:51.464Z,6.90
2023-02-24T08:17:21.071Z,6.80
2023-02-24T08:19:50.081Z,6.90
2023-02-24T08:22:21.300Z,6.90
2023-02-24T08:25:06.231Z,6.90
2023-02-24T08:27:40.601Z,6.90
2023-02-24T08:30:09.585Z,7.00
2023-02-24T08:32:47.158Z,7.10
2023-02-24T08:35:17.414Z,7.20
2023-02-24T08:37:47.716Z,7.20
2023-02-24T08:40:50.124Z,7.40
2023-02-24T08:43:24.055Z,7.60
2023-02-24T08:45:59.771Z,7.50
2023-02-24T08:48:37.846Z,7.60
2023-02-24T08:51:13.235Z,7.70
2023-02-24T08:53:43.681Z,7.80
2023-02-24T08:56:13.500Z,7.80
2023-02-24T08:58:47.800Z,7.90
2023-02-24T09:01:24.456Z,7.90
2023-02-24T09:03:59.559Z,8.00
2023-02-24T09:06:38.001Z,8.00
2023-02-24T09:09:23.509Z,8.00
2023-02-24T09:11:56.686Z,8.00
2023-02-24T09:14:30.670Z,7.90
2023-02-24T09:17:02.449Z,7.90
2023-02-24T09:19:40.722Z,7.80
2023-02-24T09:22:21.502Z,7.70
2023-02-24T09:24:51.326Z,7.60
2023-02-24T09:27:18.629Z,7.50
2023-02-24T09:29:52.005Z,7.50
2023-02-24T09:32:19.319Z,7.50
2023-02-24T09:34:47.501Z,7.50
2023-02-24T09:37:35.940Z,7.40
2023-02-24T09:40:21.554Z,7.40
2023-02-24T09:42:49.003Z,7.40
2023-02-24T09:45:33.679Z,7.40
2023-02-24T09:48:21.434Z,7.40
2023-02-24T09:51:09.089Z,7.40
2023-02-24T09:53:41.683Z,7.30
2023-02-24T09:56:23.121Z,7.30
2023-02-24T09:59:12.961Z,7.30
2023-02-24T10:01:43.746Z,7.30
2023-02-24T10:04:23.305Z,7.30
2023-02-24T10:07:16.038Z,7.30
2023-02-24T10:10:30.255Z,7.30
2023-02-24T10:13:13.982Z,7.30
2023-02-24T10:16:10.431Z,7.30
2023-02-24T10:18:44.345Z,7.40
2023-02-24T10:21:15.727Z,7.40
2023-02-24T10:24:06.392Z,7.40
2023-02-24T10:27:00.098Z,7.50
2023-02-24T10:30:11.570Z,7.40
2023-02-24T10:33:01.981Z,7.40
2023-02-24T10:35:34.076Z,7.30
2023-02-24T10:38:05.891Z,7.30
2023-02-24T10:40:47.580Z,7.30
2023-02-24T10:43:20.735Z,7.30
2023-02-24T10:45:48.445Z,7.30
2023-02-24T10:48:42.956Z,7.30
2023-02-24T10:51:30.451Z,7.40
2023-02-24T10:54:43.622Z,7.40
2023-02-24T10:57:38.233Z,7.40
2023-02-24T11:00:31.195Z,7.40
2023-02-24T11:03:08.534Z,7.40
2023-02-24T11:05:38.936Z,7.40
2023-02-24T11:08:26.411Z,7.40
2023-02-24T11:10:58.894Z,7.40
2023-02-24T11:13:45.859Z,7.30
2023-02-24T11:16:31.353Z,7.30
2023-02-24T11:18:58.929Z,7.30
2023-02-24T11:21:28.118Z,7.30
2023-02-24T11:24:00.086Z,7.30
2023-02-24T11:26:36.150Z,7.30
2023-02-24T11:29:22.469Z,7.20
2023-02-24T11:32:12.088Z,7.20
2023-02-24T11:35:01.341Z,7.20
2023-02-24T11:37:53.388Z,7.20
2023-02-24T11:40:28.692Z,7.30
2023-02-24T11:43:03.554Z,7.40
2023-02-24T11:45:41.614Z,7.40
2023-02-24T11:48:24.139Z,7.40
2023-02-24T11:51:05.253Z,7.40
2023-02-24T11:53:59.343Z,7.40
2023-02-24T11:56:37.245Z,7.40
2023-02-24T11:59:40.566Z,7.40
2023-02-24T12:02:10.545Z,7.40
2023-02-24T12:04:51.228Z,7.30
2023-02-24T12:07:33.473Z,7.30
2023-02-24T12:10:17.994Z,7.30
2023-02-24T12:12:49.443Z,7.40
2023-02-24T12:15:48.979Z,7.40
2023-02-24T12:18:18.882Z,7.40
2023-02-24T12:20:55.908Z,7.30
2023-02-24T12:23:28.721Z,7.20
2023-02-24T12:26:14.683Z,7.20
2023-02-24T12:29:20.049Z,7.20
2023-02-24T12:32:16.132Z,7.20
2023-02-24T12:35:20.247Z,7.20
2023-02-24T12:38:19.211Z,7.10
2023-02-24T12:41:00.818Z,7.10
2023-02-24T12:43:34.601Z,7.10
2023-02-24T12:46:22.708Z,7.20
2023-02-24T12:49:12.225Z,7.40
2023-02-24T12:51:46.964Z,7.40
2023-02-24T12:54:30.652Z,7.40
2023-02-24T12:57:30.626Z,7.40
2023-02-24T13:00:07.404Z,7.50
2023-02-24T13:02:50.989Z,7.50
2023-02-24T13:05:34.404Z,7.50
2023-02-24T13:08:28.630Z,7.60
2023-02-24T13:11:36.930Z,7.60
2023-02-24T13:14:26.548Z,7.70
2023-02-24T13:17:09.448Z,7.60
2023-02-24T13:19:41.012Z,7.40
2023-02-24T13:22:12.723Z,7.50
2023-02-24T13:24:43.048Z,7.70
2023-02-24T13:27:13.354Z,7.90
2023-02-24T13:29:58.202Z,8.10
2023-02-24T13:32:39.385Z,8.20
2023-02-24T13:35:15.641Z,8.20
2023-02-24T13:37:48.326Z,8.50
2023-02-24T13:40:18.369Z,8.60
2023-02-24T13:43:01.784Z,8.50
2023-02-24T13:45:35.145Z,8.30
2023-02-24T13:48:25.437Z,8.10
2023-02-24T13:51:35.658Z,7.80
2023-02-24T13:54:31.566Z,7.70
2023-02-24T13:57:04.908Z,7.60
2023-02-24T14:00:10.390Z,7.60
2023-02-24T14:02:44.457Z,7.70
2023-02-24T14:05:25.130Z,7.70
2023-02-24T14:07:53.472Z,7.80
2023-02-24T14:10:27.181Z,7.90
2023-02-24T14:13:01.102Z,7.90
2023-02-24T14:15:29.125Z,7.80
2023-02-24T14:18:05.187Z,7.70
2023-02-24T14:20:34.882Z,7.60
2023-02-24T14:23:02.834Z,7.60
2023-02-24T14:25:39.772Z,7.60
2023-02-24T14:28:09.413Z,7.50
2023-02-24T14:30:42.425Z,7.50
2023-02-24T14:33:31.855Z,7.40
2023-02-24T14:36:01.450Z,7.50
2023-02-24T14:38:33.856Z,7.50
2023-02-24T14:41:17.728Z,7.50
2023-02-24T14:43:44.941Z,7.50
2023-02-24T14:46:12.401Z,7.50
2023-02-24T14:48:39.738Z,7.50
2023-02-24T14:51:12.387Z,7.50
2023-02-24T14:53:50.793Z,7.40
2023-02-24T14:56:20.044Z,7.40
2023-02-24T14:58:55.133Z,7.30
2023-02-24T15:01:30.483Z,7.30
2023-02-24T15:04:12.618Z,7.20
2023-02-24T15:06:42.997Z,7.20
2023-02-24T15:09:22.815Z,7.20
2023-02-24T15:11:53.671Z,7.20
2023-02-24T15:14:25.629Z,7.10
2023-02-24T15:17:02.667Z,7.10
2023-02-24T15:19:36.286Z,7.10
2023-02-24T15:22:05.451Z,7.10
2023-02-24T15:24:35.022Z,7.10
2023-02-24T15:27:14.631Z,7.10
2023-02-24T15:29:44.222Z,7.20
2023-02-24T15:32:18.925Z,7.10
2023-02-24T15:34:49.064Z,7.10
2023-02-24T15:37:28.433Z,7.10
2023-02-24T15:40:19.099Z,7.10
2023-02-24T15:42:55.743Z,7.00
2023-02-24T15:45:29.342Z,7.00
2023-02-24T15:48:00.127Z,7.00
2023-02-24T15:50:29.029Z,7.00
2023-02-24T15:53:01.826Z,7.00
2023-02-24T15:55:29.837Z,7.00
2023-02-24T15:58:00.170Z,7.00
2023-02-24T16:00:27.991Z,7.00
2023-02-24T16:02:55.323Z,6.90
2023-02-24T16:05:22.954Z,6.90
2023-02-24T16:07:50.664Z,6.90
2023-02-24T16:10:25.498Z,6.80
2023-02-24T16:12:58.683Z,6.80
2023-02-24T16:15:32.493Z,6.80
2023-02-24T16:18:02.790Z,6.70
2023-02-24T16:20:39.889Z,6.60
2023-02-24T16:23:07.323Z,6.60
2023-02-24T16:25:42.823Z,6.60
2023-02-24T16:28:16.056Z,6.60
2023-02-24T16:30:45.153Z,6.60
2023-02-24T16:33:14.799Z,6.60
2023-02-24T16:35:44.688Z,6.60
2023-02-24T16:38:17.303Z,6.60
2023-02-24T16:40:47.565Z,6.70
2023-02-24T16:43:14.829Z,6.60
2023-02-24T16:45:43.651Z,6.60
2023-02-24T16:48:22.469Z,6.50
2023-02-24T16:50:49.902Z,6.50
2023-02-24T16:53:20.347Z,6.50
2023-02-24T16:55:47.779Z,6.50
2023-02-24T16:58:15.617Z,6.50
2023-02-24T17:00:46.281Z,6.50
2023-02-24T17:03:44.640Z,6.40
2023-02-24T17:06:12.314Z,6.40
2023-02-24T17:08:41.837Z,6.40
2023-02-24T17:11:13.556Z,6.40
2023-02-24T17:13:41.192Z,6.40
2023-02-24T17:16:08.447Z,6.40
2023-02-24T17:18:36.263Z,6.40
2023-02-24T17:21:04.732Z,6.30
2023-02-24T17:23:32.635Z,6.30
2023-02-24T17:26:02.152Z,6.30
2023-02-24T17:28:29.788Z,6.30
2023-02-24T17:30:57.156Z,6.30
2023-02-24T17:33:24.779Z,6.20
2023-02-24T17:35:51.982Z,6.20
2023-02-24T17:38:21.820Z,6.10
2023-02-24T17:40:50.021Z,6.10
2023-02-24T17:43:17.978Z,6.10
2023-02-24T17:45:47.213Z,6.00
2023-02-24T17:48:15.860Z,6.00
2023-02-24T17:50:44.759Z,6.00
2023-02-24T17:53:11.910Z,6.00
2023-02-24T17:55:40.366Z,5.90
2023-02-24T17:58:11.779Z,5.90
2023-02-24T18:00:39.139Z,5.80
2023-02-24T18:03:06.574Z,5.80
2023-02-24T18:05:33.881Z,5.80
2023-02-24T18:08:01.484Z,5.80
2023-02-24T18:10:29.043Z,5.70
2023-02-24T18:12:56.263Z,5.70
2023-02-24T18:15:23.568Z,5.60
2023-02-24T18:17:51.082Z,5.60
2023-02-24T18:20:18.630Z,5.60
2023-02-24T18:22:45.936Z,5.60
2023-02-24T18:25:13.850Z,5.60
2023-02-24T18:27:41.110Z,5.50
2023-02-24T18:30:10.464Z,5.50
2023-02-24T18:32:44.806Z,5.50
2023-02-24T18:35:13.288Z,5.50
2023-02-24T18:37:40.659Z,5.50
2023-02-24T18:40:08.415Z,5.40
2023-02-24T18:42:35.819Z,5.40
2023-02-24T18:45:03.036Z,5.40
2023-02-24T18:47:30.182Z,5.40
2023-02-24T18:49:57.927Z,5.40
2023-02-24T18:52:25.354Z,5.40
2023-02-24T18:54:53.409Z,5.30
2023-02-24T18:57:20.801Z,5.30
2023-02-24T18:59:51.379Z,5.30
2023-02-24T19:02:18.682Z,5.30
2023-02-24T19:04:46.793Z,5.30
2023-02-24T19:07:14.137Z,5.40
2023-02-24T19:09:42.926Z,5.40
2023-02-24T19:12:10.134Z,5.40
2023-02-24T19:14:37.706Z,5.50
2023-02-24T19:17:04.890Z,5.50
2023-02-24T19:19:32.697Z,5.50
2023-02-24T19:22:00.949Z,5.50
2023-02-24T19:24:28.288Z,5.50
2023-02-24T19:26:55.824Z,5.50
2023-02-24T19:29:23.260Z,5.50
2023-02-24T19:31:55.026Z,5.50
2023-02-24T19:34:22.980Z,5.40
2023-02-24T19:36:50.480Z,5.50
2023-02-24T19:39:18.283Z,5.50
2023-02-24T19:41:46.982Z,5.50
2023-02-24T19:44:15.666Z,5.50
2023-02-24T19:46:48.702Z,5.50
2023-02-24T19:49:15.860Z,5.60
2023-02-24T19:51:45.579Z,5.60
2023-02-24T19:54:14.300Z,5.60
2023-02-24T19:56:41.541Z,5.60
2023-02-24T19:59:09.162Z,5.60
2023-02-24T20:01:37.015Z,5.60
2023-02-24T20:04:04.843Z,5.60
2023-02-24T20:06:33.911Z,5.60
2023-02-24T20:09:09.436Z,5.60
2023-02-24T20:11:38.872Z,5.60
2023-02-24T20:14:08.449Z,5.60
2023-02-24T20:16:38.482Z,5.60
2023-02-24T20:19:07.366Z,5.60
2023-02-24T20:21:35.235Z,5.60
2023-02-24T20:24:04.057Z,5.50
2023-02-24T20:26:32.081Z,5.50
2023-02-24T20:29:00.663Z,5.40
2023-02-24T20:31:28.343Z,5.50
2023-02-24T20:33:56.809Z,5.40
2023-02-24T20:36:26.884Z,5.40
2023-02-24T20:38:54.963Z,5.40
2023-02-24T20:41:22.901Z,5.40
2023-02-24T20:43:50.508Z,5.40
2023-02-24T20:46:25.557Z,5.30
2023-02-24T20:48:56.974Z,5.30
2023-02-24T20:51:24.933Z,5.20
2023-02-24T20:53:57.656Z,5.20
2023-02-24T20:56:27.895Z,5.20
2023-02-24T20:59:08.560Z,5.10
2023-02-24T21:01:36.405Z,5.10
2023-02-24T21:04:05.100Z,5.10
2023-02-24T21:06:33.068Z,5.10
2023-02-24T21:09:01.425Z,5.10
2023-02-24T21:11:30.423Z,5.10
2023-02-24T21:13:58.184Z,5.10
2023-02-24T21:16:27.728Z,5.10
2023-02-24T21:18:56.499Z,5.10
2023-02-24T21:21:23.877Z,5.10
2023-02-24T21:23:51.744Z,5.10
2023-02-24T21:26:19.922Z,5.10
2023-02-24T21:28:47.545Z,5.00
2023-02-24T21:31:17.657Z,5.00
2023-02-24T21:33:44.984Z,5.00
2023-02-24T21:36:15.989Z,5.00
2023-02-24T21:38:43.192Z,5.00
2023-02-24T21:41:15.118Z,5.00
2023-02-24T21:43:44.540Z,5.00
2023-02-24T21:46:14.052Z,5.00
2023-02-24T21:48:42.214Z,4.90
2023-02-24T21:51:12.557Z,4.90
2023-02-24T21:53:44.102Z,4.80
2023-02-24T21:56:16.905Z,4.80
2023-02-24T21:58:47.592Z,4.80
2023-02-24T22:01:27.172Z,4.70
2023-02-24T22:03:59.804Z,4.60
2023-02-24T22:06:31.286Z,4.60
2023-02-24T22:08:59.648Z,4.50
2023-02-24T22:11:27.749Z,4.40
2023-02-24T22:13:54.961Z,4.40
2023-02-24T22:16:25.129Z,4.30
2023-02-24T22:18:53.694Z,4.30
2023-02-24T22:21:23.358Z,4.30
2023-02-24T22:23:53.174Z,4.20
2023-02-24T22:26:24.002Z,4.30
2023-02-24T22:28:51.665Z,4.30
2023-02-24T22:31:21.928Z,4.30
2023-02-24T22:33:49.360Z,4.30
2023-02-24T22:36:21.294Z,4.20
2023-02-24T22:38:49.224Z,4.10
2023-02-24T22:41:19.860Z,4.10
2023-02-24T22:43:48.147Z,4.10
2023-02-24T22:46:18.633Z,4.10
2023-02-24T22:48:45.804Z,4.10
2023-02-24T22:51:15.065Z,4.00
2023-02-24T22:53:46.867Z,4.00
2023-02-24T22:56:17.797Z,4.00
2023-02-24T22:58:45.545Z,4.00
2023-02-24T23:01:19.488Z,4.00
2023-02-24T23:03:46.852Z,4.10
2023-02-24T23:06:22.315Z,4.10
2023-02-24T23:08:51.365Z,3.90
2023-02-24T23:11:20.346Z,3.90
2023-02-24T23:13:49.462Z,3.90
2023-02-24T23:16:19.980Z,3.90
2023-02-24T23:18:51.010Z,3.90
2023-02-24T23:21:22.613Z,3.90
2023-02-24T23:23:50.589Z,3.80
2023-02-24T23:26:18.299Z,3.90
2023-02-24T23:28:46.930Z,3.80
2023-02-24T23:31:20.222Z,3.90
2023-02-24T23:33:48.221Z,3.90
2023-02-24T23:36:17.027Z,3.90
2023-02-24T23:38:45.383Z,3.90
2023-02-24T23:41:13.058Z,3.90
2023-02-24T23:43:40.346Z,3.90
2023-02-24T23:46:10.234Z,3.90
2023-02-24T23:48:38.589Z,3.90
2023-02-24T23:51:11.695Z,3.90
2023-02-24T23:53:45.009Z,3.80
2023-02-24T23:56:23.745Z,3.70
2023-02-24T23:58:52.802Z,3.70
